sensor_id;sensor_type;location;lat;lon;timestamp;P1;durP1;ratioP1;P2;durP2;ratioP2
48040;SDS011;33815;48.386;11.738;2023-01-26T00:00:22;33.35;;;11.48;;
48040;SDS011;33815;48.386;11.738;2023-01-26T00:02:47;26.40;;;11.20;;
48040;SDS011;33815;48.386;11.738;2023-01-26T00:05:13;32.60;;;13.93;;
48040;SDS011;33815;48.386;11.738;2023-01-26T00:07:38;29.85;;;11.68;;
48040;SDS011;33815;48.386;11.738;2023-01-26T00:10:06;30.67;;;12.38;;
48040;SDS011;33815;48.386;11.738;2023-01-26T00:12:32;32.53;;;11.82;;
48040;SDS011;33815;48.386;11.738;2023-01-26T00:14:57;30.52;;;12.00;;
48040;SDS011;33815;48.386;11.738;2023-01-26T00:17:22;32.85;;;13.00;;
48040;SDS011;33815;48.386;11.738;2023-01-26T00:19:51;26.90;;;12.10;;
48040;SDS011;33815;48.386;11.738;2023-01-26T00:22:18;34.13;;;12.10;;
48040;SDS011;33815;48.386;11.738;2023-01-26T00:24:43;29.83;;;12.50;;
48040;SDS011;33815;48.386;11.738;2023-01-26T00:27:08;33.42;;;13.25;;
48040;SDS011;33815;48.386;11.738;2023-01-26T00:29:34;30.40;;;12.73;;
48040;SDS011;33815;48.386;11.738;2023-01-26T00:31:59;31.60;;;13.15;;
48040;SDS011;33815;48.386;11.738;2023-01-26T00:34:24;25.40;;;12.60;;
48040;SDS011;33815;48.386;11.738;2023-01-26T00:36:49;29.95;;;13.05;;
48040;SDS011;33815;48.386;11.738;2023-01-26T00:39:15;32.10;;;13.65;;
48040;SDS011;33815;48.386;11.738;2023-01-26T00:41:40;30.15;;;11.60;;
48040;SDS011;33815;48.386;11.738;2023-01-26T00:44:24;34.97;;;13.75;;
48040;SDS011;33815;48.386;11.738;2023-01-26T00:46:49;33.17;;;13.18;;
48040;SDS011;33815;48.386;11.738;2023-01-26T00:49:15;34.00;;;13.23;;
48040;SDS011;33815;48.386;11.738;2023-01-26T00:51:40;30.38;;;12.93;;
48040;SDS011;33815;48.386;11.738;2023-01-26T00:54:06;35.80;;;13.30;;
48040;SDS011;33815;48.386;11.738;2023-01-26T00:56:31;33.67;;;12.27;;
48040;SDS011;33815;48.386;11.738;2023-01-26T00:58:57;31.20;;;11.90;;
48040;SDS011;33815;48.386;11.738;2023-01-26T01:01:22;30.42;;;12.75;;
48040;SDS011;33815;48.386;11.738;2023-01-26T01:03:48;29.33;;;13.32;;
48040;SDS011;33815;48.386;11.738;2023-01-26T01:06:14;30.70;;;12.45;;
48040;SDS011;33815;48.386;11.738;2023-01-26T01:08:39;33.90;;;12.77;;
48040;SDS011;33815;48.386;11.738;2023-01-26T01:11:06;36.00;;;13.27;;
48040;SDS011;33815;48.386;11.738;2023-01-26T01:13:33;29.20;;;12.75;;
48040;SDS011;33815;48.386;11.738;2023-01-26T01:15:59;29.95;;;11.70;;
48040;SDS011;33815;48.386;11.738;2023-01-26T01:18:24;29.38;;;12.40;;
48040;SDS011;33815;48.386;11.738;2023-01-26T01:20:50;34.53;;;12.75;;
48040;SDS011;33815;48.386;11.738;2023-01-26T01:23:15;31.77;;;13.23;;
48040;SDS011;33815;48.386;11.738;2023-01-26T01:25:40;33.40;;;13.52;;
48040;SDS011;33815;48.386;11.738;2023-01-26T01:28:05;30.48;;;13.02;;
48040;SDS011;33815;48.386;11.738;2023-01-26T01:30:31;30.05;;;13.70;;
48040;SDS011;33815;48.386;11.738;2023-01-26T01:32:56;31.75;;;13.88;;
48040;SDS011;33815;48.386;11.738;2023-01-26T01:35:21;30.67;;;11.50;;
48040;SDS011;33815;48.386;11.738;2023-01-26T01:37:46;32.72;;;13.73;;
48040;SDS011;33815;48.386;11.738;2023-01-26T01:40:12;36.38;;;14.65;;
48040;SDS011;33815;48.386;11.738;2023-01-26T01:42:37;30.80;;;12.60;;
48040;SDS011;33815;48.386;11.738;2023-01-26T01:48:06;36.92;;;14.60;;
48040;SDS011;33815;48.386;11.738;2023-01-26T01:50:39;29.83;;;12.60;;
48040;SDS011;33815;48.386;11.738;2023-01-26T01:53:05;31.77;;;13.35;;
48040;SDS011;33815;48.386;11.738;2023-01-26T01:55:33;31.10;;;13.45;;
48040;SDS011;33815;48.386;11.738;2023-01-26T01:57:59;30.98;;;13.75;;
48040;SDS011;33815;48.386;11.738;2023-01-26T02:00:27;32.28;;;13.63;;
48040;SDS011;33815;48.386;11.738;2023-01-26T02:08:25;29.95;;;13.63;;
48040;SDS011;33815;48.386;11.738;2023-01-26T02:10:55;35.25;;;14.57;;
48040;SDS011;33815;48.386;11.738;2023-01-26T02:13:23;33.90;;;15.10;;
48040;SDS011;33815;48.386;11.738;2023-01-26T02:15:50;27.83;;;13.52;;
48040;SDS011;33815;48.386;11.738;2023-01-26T02:18:16;34.08;;;14.35;;
48040;SDS011;33815;48.386;11.738;2023-01-26T02:26:05;32.17;;;14.48;;
48040;SDS011;33815;48.386;11.738;2023-01-26T02:28:36;32.60;;;13.75;;
48040;SDS011;33815;48.386;11.738;2023-01-26T02:31:03;27.58;;;12.73;;
48040;SDS011;33815;48.386;11.738;2023-01-26T02:33:30;34.35;;;14.50;;
48040;SDS011;33815;48.386;11.738;2023-01-26T02:35:56;30.70;;;14.07;;
48040;SDS011;33815;48.386;11.738;2023-01-26T02:38:22;22.80;;;11.35;;
48040;SDS011;33815;48.386;11.738;2023-01-26T02:41:00;33.63;;;13.10;;
48040;SDS011;33815;48.386;11.738;2023-01-26T02:43:29;31.33;;;14.05;;
48040;SDS011;33815;48.386;11.738;2023-01-26T02:45:56;28.63;;;11.55;;
48040;SDS011;33815;48.386;11.738;2023-01-26T02:48:21;36.35;;;14.25;;
48040;SDS011;33815;48.386;11.738;2023-01-26T02:51:05;27.83;;;11.98;;
48040;SDS011;33815;48.386;11.738;2023-01-26T02:53:31;25.02;;;11.88;;
48040;SDS011;33815;48.386;11.738;2023-01-26T02:55:57;28.45;;;13.32;;
48040;SDS011;33815;48.386;11.738;2023-01-26T02:58:22;34.45;;;13.43;;
48040;SDS011;33815;48.386;11.738;2023-01-26T03:00:47;28.92;;;12.93;;
48040;SDS011;33815;48.386;11.738;2023-01-26T03:03:13;31.08;;;14.38;;
48040;SDS011;33815;48.386;11.738;2023-01-26T03:05:40;27.15;;;13.48;;
48040;SDS011;33815;48.386;11.738;2023-01-26T03:08:06;29.55;;;13.95;;
48040;SDS011;33815;48.386;11.738;2023-01-26T03:10:32;31.23;;;13.35;;
48040;SDS011;33815;48.386;11.738;2023-01-26T03:12:57;31.85;;;13.30;;
48040;SDS011;33815;48.386;11.738;2023-01-26T03:15:23;30.20;;;13.15;;
48040;SDS011;33815;48.386;11.738;2023-01-26T03:18:12;30.45;;;13.50;;
48040;SDS011;33815;48.386;11.738;2023-01-26T03:20:58;34.38;;;12.20;;
48040;SDS011;33815;48.386;11.738;2023-01-26T03:23:43;32.65;;;13.00;;
48040;SDS011;33815;48.386;11.738;2023-01-26T03:26:27;31.05;;;11.88;;
48040;SDS011;33815;48.386;11.738;2023-01-26T03:29:11;34.00;;;13.18;;
48040;SDS011;33815;48.386;11.738;2023-01-26T03:31:36;34.53;;;13.27;;
48040;SDS011;33815;48.386;11.738;2023-01-26T03:34:01;25.45;;;12.65;;
48040;SDS011;33815;48.386;11.738;2023-01-26T03:36:26;34.75;;;13.75;;
48040;SDS011;33815;48.386;11.738;2023-01-26T03:38:52;33.63;;;12.27;;
48040;SDS011;33815;48.386;11.738;2023-01-26T03:41:17;37.10;;;12.98;;
48040;SDS011;33815;48.386;11.738;2023-01-26T03:44:01;34.97;;;13.88;;
48040;SDS011;33815;48.386;11.738;2023-01-26T03:46:44;38.60;;;13.57;;
48040;SDS011;33815;48.386;11.738;2023-01-26T03:49:28;29.77;;;12.60;;
48040;SDS011;33815;48.386;11.738;2023-01-26T03:52:12;28.73;;;12.65;;
48040;SDS011;33815;48.386;11.738;2023-01-26T03:54:56;34.88;;;13.07;;
48040;SDS011;33815;48.386;11.738;2023-01-26T03:57:40;26.90;;;11.90;;
48040;SDS011;33815;48.386;11.738;2023-01-26T04:00:06;35.10;;;13.07;;
48040;SDS011;33815;48.386;11.738;2023-01-26T04:02:31;42.72;;;13.65;;
48040;SDS011;33815;48.386;11.738;2023-01-26T04:05:15;29.05;;;12.25;;
48040;SDS011;33815;48.386;11.738;2023-01-26T04:08:03;27.80;;;12.68;;
48040;SDS011;33815;48.386;11.738;2023-01-26T04:10:48;28.20;;;11.93;;
48040;SDS011;33815;48.386;11.738;2023-01-26T04:13:17;28.08;;;12.45;;
48040;SDS011;33815;48.386;11.738;2023-01-26T04:16:02;29.98;;;11.68;;
48040;SDS011;33815;48.386;11.738;2023-01-26T04:18:47;29.90;;;12.40;;
48040;SDS011;33815;48.386;11.738;2023-01-26T04:21:31;22.77;;;10.95;;
48040;SDS011;33815;48.386;11.738;2023-01-26T04:24:00;28.80;;;12.13;;
48040;SDS011;33815;48.386;11.738;2023-01-26T04:26:33;32.47;;;12.40;;
48040;SDS011;33815;48.386;11.738;2023-01-26T04:29:04;26.23;;;10.98;;
48040;SDS011;33815;48.386;11.738;2023-01-26T04:31:32;26.92;;;11.48;;
48040;SDS011;33815;48.386;11.738;2023-01-26T04:33:58;31.50;;;11.73;;
48040;SDS011;33815;48.386;11.738;2023-01-26T04:36:24;27.65;;;12.02;;
48040;SDS011;33815;48.386;11.738;2023-01-26T04:38:49;27.95;;;10.52;;
48040;SDS011;33815;48.386;11.738;2023-01-26T04:41:14;31.58;;;12.05;;
48040;SDS011;33815;48.386;11.738;2023-01-26T04:43:40;28.17;;;10.77;;
48040;SDS011;33815;48.386;11.738;2023-01-26T04:46:06;26.80;;;12.25;;
48040;SDS011;33815;48.386;11.738;2023-01-26T04:48:32;28.63;;;11.02;;
48040;SDS011;33815;48.386;11.738;2023-01-26T04:51:16;27.23;;;10.90;;
48040;SDS011;33815;48.386;11.738;2023-01-26T04:56:13;29.50;;;11.48;;
48040;SDS011;33815;48.386;11.738;2023-01-26T04:58:44;26.27;;;10.40;;
48040;SDS011;33815;48.386;11.738;2023-01-26T05:01:09;28.15;;;10.70;;
48040;SDS011;33815;48.386;11.738;2023-01-26T05:03:34;26.70;;;11.60;;
48040;SDS011;33815;48.386;11.738;2023-01-26T05:06:00;29.67;;;11.95;;
48040;SDS011;33815;48.386;11.738;2023-01-26T05:08:25;26.92;;;10.52;;
48040;SDS011;33815;48.386;11.738;2023-01-26T05:10:50;35.05;;;12.70;;
48040;SDS011;33815;48.386;11.738;2023-01-26T05:13:16;31.88;;;12.98;;
48040;SDS011;33815;48.386;11.738;2023-01-26T05:15:41;29.73;;;12.32;;
48040;SDS011;33815;48.386;11.738;2023-01-26T05:18:08;27.77;;;11.25;;
48040;SDS011;33815;48.386;11.738;2023-01-26T05:20:34;25.60;;;10.07;;
48040;SDS011;33815;48.386;11.738;2023-01-26T05:23:00;28.55;;;12.77;;
48040;SDS011;33815;48.386;11.738;2023-01-26T05:25:25;22.33;;;11.70;;
48040;SDS011;33815;48.386;11.738;2023-01-26T05:27:50;29.58;;;11.75;;
48040;SDS011;33815;48.386;11.738;2023-01-26T05:30:16;28.20;;;10.15;;
48040;SDS011;33815;48.386;11.738;2023-01-26T05:32:42;25.52;;;11.60;;
48040;SDS011;33815;48.386;11.738;2023-01-26T05:35:07;28.08;;;11.15;;
48040;SDS011;33815;48.386;11.738;2023-01-26T05:37:33;27.50;;;11.57;;
48040;SDS011;33815;48.386;11.738;2023-01-26T05:39:59;25.42;;;11.07;;
48040;SDS011;33815;48.386;11.738;2023-01-26T05:42:24;24.10;;;10.43;;
48040;SDS011;33815;48.386;11.738;2023-01-26T05:44:50;33.38;;;12.02;;
48040;SDS011;33815;48.386;11.738;2023-01-26T05:47:15;27.10;;;11.48;;
48040;SDS011;33815;48.386;11.738;2023-01-26T05:49:41;25.55;;;11.13;;
48040;SDS011;33815;48.386;11.738;2023-01-26T05:52:16;26.52;;;10.70;;
48040;SDS011;33815;48.386;11.738;2023-01-26T05:54:43;24.88;;;11.02;;
48040;SDS011;33815;48.386;11.738;2023-01-26T05:57:09;29.80;;;11.73;;
48040;SDS011;33815;48.386;11.738;2023-01-26T05:59:34;28.55;;;10.95;;
48040;SDS011;33815;48.386;11.738;2023-01-26T06:02:00;24.95;;;10.93;;
48040;SDS011;33815;48.386;11.738;2023-01-26T06:04:26;28.63;;;11.80;;
48040;SDS011;33815;48.386;11.738;2023-01-26T06:06:54;21.33;;;10.55;;
48040;SDS011;33815;48.386;11.738;2023-01-26T06:09:21;27.67;;;11.00;;
48040;SDS011;33815;48.386;11.738;2023-01-26T06:11:47;26.23;;;10.50;;
48040;SDS011;33815;48.386;11.738;2023-01-26T06:14:12;26.83;;;11.25;;
48040;SDS011;33815;48.386;11.738;2023-01-26T06:16:38;26.67;;;10.68;;
48040;SDS011;33815;48.386;11.738;2023-01-26T06:19:03;21.48;;;10.77;;
48040;SDS011;33815;48.386;11.738;2023-01-26T06:21:29;24.30;;;10.65;;
48040;SDS011;33815;48.386;11.738;2023-01-26T06:23:55;25.95;;;12.00;;
48040;SDS011;33815;48.386;11.738;2023-01-26T06:26:20;25.33;;;9.98;;
48040;SDS011;33815;48.386;11.738;2023-01-26T06:28:46;24.52;;;10.77;;
48040;SDS011;33815;48.386;11.738;2023-01-26T06:31:11;27.35;;;12.43;;
48040;SDS011;33815;48.386;11.738;2023-01-26T06:33:37;27.33;;;10.75;;
48040;SDS011;33815;48.386;11.738;2023-01-26T06:36:03;22.92;;;11.57;;
48040;SDS011;33815;48.386;11.738;2023-01-26T06:38:30;25.13;;;9.68;;
48040;SDS011;33815;48.386;11.738;2023-01-26T06:40:59;22.75;;;10.73;;
48040;SDS011;33815;48.386;11.738;2023-01-26T06:43:30;23.33;;;9.75;;
48040;SDS011;33815;48.386;11.738;2023-01-26T06:45:59;24.63;;;10.95;;
48040;SDS011;33815;48.386;11.738;2023-01-26T06:48:25;25.77;;;10.75;;
48040;SDS011;33815;48.386;11.738;2023-01-26T06:50:52;26.33;;;10.77;;
48040;SDS011;33815;48.386;11.738;2023-01-26T06:53:36;35.30;;;11.45;;
48040;SDS011;33815;48.386;11.738;2023-01-26T06:56:04;21.20;;;10.07;;
48040;SDS011;33815;48.386;11.738;2023-01-26T06:58:29;26.08;;;11.57;;
48040;SDS011;33815;48.386;11.738;2023-01-26T07:00:55;23.20;;;10.80;;
48040;SDS011;33815;48.386;11.738;2023-01-26T07:03:21;29.23;;;11.00;;
48040;SDS011;33815;48.386;11.738;2023-01-26T07:05:46;28.38;;;10.35;;
48040;SDS011;33815;48.386;11.738;2023-01-26T07:08:11;27.00;;;13.80;;
48040;SDS011;33815;48.386;11.738;2023-01-26T07:10:37;25.25;;;11.65;;
48040;SDS011;33815;48.386;11.738;2023-01-26T07:13:03;28.17;;;10.93;;
48040;SDS011;33815;48.386;11.738;2023-01-26T07:15:29;41.35;;;17.75;;
48040;SDS011;33815;48.386;11.738;2023-01-26T07:17:55;43.42;;;17.55;;
48040;SDS011;33815;48.386;11.738;2023-01-26T07:20:21;28.67;;;12.43;;
48040;SDS011;33815;48.386;11.738;2023-01-26T07:22:47;36.70;;;15.18;;
48040;SDS011;33815;48.386;11.738;2023-01-26T07:25:12;26.65;;;11.52;;
48040;SDS011;33815;48.386;11.738;2023-01-26T07:27:37;28.98;;;12.77;;
48040;SDS011;33815;48.386;11.738;2023-01-26T07:30:03;26.25;;;12.35;;
48040;SDS011;33815;48.386;11.738;2023-01-26T07:32:29;27.63;;;12.18;;
48040;SDS011;33815;48.386;11.738;2023-01-26T07:34:55;25.92;;;10.90;;
48040;SDS011;33815;48.386;11.738;2023-01-26T07:37:20;34.08;;;15.18;;
48040;SDS011;33815;48.386;11.738;2023-01-26T07:39:45;30.33;;;12.35;;
48040;SDS011;33815;48.386;11.738;2023-01-26T07:42:12;29.25;;;12.05;;
48040;SDS011;33815;48.386;11.738;2023-01-26T07:44:38;30.35;;;13.07;;
48040;SDS011;33815;48.386;11.738;2023-01-26T07:47:03;26.13;;;10.20;;
48040;SDS011;33815;48.386;11.738;2023-01-26T07:49:28;28.45;;;10.43;;
48040;SDS011;33815;48.386;11.738;2023-01-26T07:51:54;21.08;;;9.77;;
48040;SDS011;33815;48.386;11.738;2023-01-26T07:54:20;20.48;;;10.10;;
48040;SDS011;33815;48.386;11.738;2023-01-26T07:56:52;25.05;;;11.38;;
48040;SDS011;33815;48.386;11.738;2023-01-26T07:59:18;25.80;;;9.18;;
48040;SDS011;33815;48.386;11.738;2023-01-26T08:01:44;20.27;;;9.93;;
48040;SDS011;33815;48.386;11.738;2023-01-26T08:04:10;22.17;;;10.95;;
48040;SDS011;33815;48.386;11.738;2023-01-26T08:06:36;20.42;;;9.63;;
48040;SDS011;33815;48.386;11.738;2023-01-26T08:09:01;20.58;;;10.15;;
48040;SDS011;33815;48.386;11.738;2023-01-26T08:11:27;26.73;;;10.25;;
48040;SDS011;33815;48.386;11.738;2023-01-26T08:13:52;20.13;;;9.68;;
48040;SDS011;33815;48.386;11.738;2023-01-26T08:16:19;25.30;;;10.05;;
48040;SDS011;33815;48.386;11.738;2023-01-26T08:18:44;24.50;;;10.85;;
48040;SDS011;33815;48.386;11.738;2023-01-26T08:21:11;25.45;;;10.32;;
48040;SDS011;33815;48.386;11.738;2023-01-26T08:23:37;27.15;;;12.10;;
48040;SDS011;33815;48.386;11.738;2023-01-26T08:26:04;26.10;;;11.32;;
48040;SDS011;33815;48.386;11.738;2023-01-26T08:28:35;24.50;;;9.90;;
48040;SDS011;33815;48.386;11.738;2023-01-26T08:31:04;22.70;;;10.77;;
48040;SDS011;33815;48.386;11.738;2023-01-26T08:33:31;26.50;;;11.82;;
48040;SDS011;33815;48.386;11.738;2023-01-26T08:36:03;21.23;;;9.15;;
48040;SDS011;33815;48.386;11.738;2023-01-26T08:38:31;24.75;;;10.63;;
48040;SDS011;33815;48.386;11.738;2023-01-26T08:40:57;21.20;;;10.25;;
48040;SDS011;33815;48.386;11.738;2023-01-26T08:43:23;26.58;;;10.88;;
48040;SDS011;33815;48.386;11.738;2023-01-26T08:45:49;26.85;;;11.40;;
48040;SDS011;33815;48.386;11.738;2023-01-26T08:48:14;28.88;;;11.60;;
48040;SDS011;33815;48.386;11.738;2023-01-26T08:50:39;28.25;;;11.55;;
48040;SDS011;33815;48.386;11.738;2023-01-26T08:53:05;37.47;;;13.10;;
48040;SDS011;33815;48.386;11.738;2023-01-26T08:55:30;29.10;;;10.50;;
48040;SDS011;33815;48.386;11.738;2023-01-26T08:57:56;138.40;;;42.35;;
48040;SDS011;33815;48.386;11.738;2023-01-26T09:00:22;97.47;;;31.88;;
48040;SDS011;33815;48.386;11.738;2023-01-26T09:02:48;92.38;;;32.45;;
48040;SDS011;33815;48.386;11.738;2023-01-26T09:05:13;32.92;;;15.93;;
48040;SDS011;33815;48.386;11.738;2023-01-26T09:07:39;27.20;;;11.23;;
48040;SDS011;33815;48.386;11.738;2023-01-26T09:10:04;22.42;;;10.80;;
48040;SDS011;33815;48.386;11.738;2023-01-26T09:12:30;23.42;;;10.35;;
48040;SDS011;33815;48.386;11.738;2023-01-26T09:14:55;62.63;;;20.05;;
48040;SDS011;33815;48.386;11.738;2023-01-26T09:17:20;40.83;;;14.25;;
48040;SDS011;33815;48.386;11.738;2023-01-26T09:19:46;22.65;;;10.80;;
48040;SDS011;33815;48.386;11.738;2023-01-26T09:22:11;68.45;;;23.00;;
48040;SDS011;33815;48.386;11.738;2023-01-26T09:24:36;30.75;;;13.52;;
48040;SDS011;33815;48.386;11.738;2023-01-26T09:27:02;26.23;;;12.65;;
48040;SDS011;33815;48.386;11.738;2023-01-26T09:29:27;24.77;;;11.68;;
48040;SDS011;33815;48.386;11.738;2023-01-26T09:31:52;20.67;;;8.43;;
48040;SDS011;33815;48.386;11.738;2023-01-26T09:34:17;25.50;;;10.65;;
48040;SDS011;33815;48.386;11.738;2023-01-26T09:36:43;22.50;;;9.95;;
48040;SDS011;33815;48.386;11.738;2023-01-26T09:39:08;28.45;;;11.05;;
48040;SDS011;33815;48.386;11.738;2023-01-26T09:44:30;27.38;;;12.40;;
48040;SDS011;33815;48.386;11.738;2023-01-26T09:47:05;22.42;;;13.15;;
48040;SDS011;33815;48.386;11.738;2023-01-26T09:49:46;23.20;;;10.75;;
48040;SDS011;33815;48.386;11.738;2023-01-26T09:52:25;24.15;;;10.77;;
48040;SDS011;33815;48.386;11.738;2023-01-26T09:54:54;24.50;;;10.27;;
48040;SDS011;33815;48.386;11.738;2023-01-26T09:57:27;25.90;;;10.60;;
48040;SDS011;33815;48.386;11.738;2023-01-26T10:08:26;22.38;;;11.38;;
48040;SDS011;33815;48.386;11.738;2023-01-26T10:10:53;23.05;;;10.48;;
48040;SDS011;33815;48.386;11.738;2023-01-26T10:13:22;25.10;;;10.85;;
48040;SDS011;33815;48.386;11.738;2023-01-26T10:15:50;29.73;;;11.70;;
48040;SDS011;33815;48.386;11.738;2023-01-26T10:18:24;23.77;;;10.75;;
48040;SDS011;33815;48.386;11.738;2023-01-26T10:20:55;31.63;;;14.60;;
48040;SDS011;33815;48.386;11.738;2023-01-26T10:23:25;28.75;;;11.65;;
48040;SDS011;33815;48.386;11.738;2023-01-26T10:26:18;22.73;;;10.10;;
48040;SDS011;33815;48.386;11.738;2023-01-26T10:28:47;21.85;;;10.35;;
48040;SDS011;33815;48.386;11.738;2023-01-26T10:31:15;22.02;;;9.93;;
48040;SDS011;33815;48.386;11.738;2023-01-26T10:34:15;21.60;;;9.70;;
48040;SDS011;33815;48.386;11.738;2023-01-26T10:36:38;23.70;;;10.50;;
48040;SDS011;33815;48.386;11.738;2023-01-26T10:39:05;25.00;;;11.52;;
48040;SDS011;33815;48.386;11.738;2023-01-26T10:41:35;22.15;;;11.10;;
48040;SDS011;33815;48.386;11.738;2023-01-26T10:44:16;21.88;;;11.63;;
48040;SDS011;33815;48.386;11.738;2023-01-26T10:46:47;28.98;;;12.05;;
48040;SDS011;33815;48.386;11.738;2023-01-26T10:49:27;22.60;;;11.18;;
48040;SDS011;33815;48.386;11.738;2023-01-26T10:52:06;21.20;;;11.60;;
48040;SDS011;33815;48.386;11.738;2023-01-26T10:54:40;28.30;;;11.40;;
48040;SDS011;33815;48.386;11.738;2023-01-26T10:57:41;27.58;;;12.60;;
48040;SDS011;33815;48.386;11.738;2023-01-26T11:00:03;21.38;;;11.02;;
48040;SDS011;33815;48.386;11.738;2023-01-26T11:02:32;23.25;;;11.02;;
48040;SDS011;33815;48.386;11.738;2023-01-26T11:07:34;28.33;;;11.32;;
48040;SDS011;33815;48.386;11.738;2023-01-26T11:12:47;23.02;;;11.63;;
48040;SDS011;33815;48.386;11.738;2023-01-26T11:15:17;24.38;;;11.85;;
48040;SDS011;33815;48.386;11.738;2023-01-26T11:30:58;23.08;;;11.25;;
48040;SDS011;33815;48.386;11.738;2023-01-26T11:47:23;24.17;;;10.60;;
48040;SDS011;33815;48.386;11.738;2023-01-26T11:55:55;29.40;;;12.88;;
48040;SDS011;33815;48.386;11.738;2023-01-26T11:58:26;26.23;;;11.25;;
48040;SDS011;33815;48.386;11.738;2023-01-26T12:00:57;18.75;;;10.23;;
48040;SDS011;33815;48.386;11.738;2023-01-26T12:03:29;24.75;;;11.68;;
48040;SDS011;33815;48.386;11.738;2023-01-26T12:06:07;20.42;;;11.68;;
48040;SDS011;33815;48.386;11.738;2023-01-26T12:08:42;22.10;;;11.18;;
48040;SDS011;33815;48.386;11.738;2023-01-26T12:11:18;24.15;;;12.88;;
48040;SDS011;33815;48.386;11.738;2023-01-26T12:21:56;20.83;;;11.02;;
48040;SDS011;33815;48.386;11.738;2023-01-26T12:24:34;21.35;;;12.13;;
48040;SDS011;33815;48.386;11.738;2023-01-26T12:29:40;23.02;;;9.60;;
48040;SDS011;33815;48.386;11.738;2023-01-26T12:32:14;14.95;;;8.10;;
48040;SDS011;33815;48.386;11.738;2023-01-26T12:34:40;16.67;;;7.90;;
48040;SDS011;33815;48.386;11.738;2023-01-26T12:40:19;12.32;;;7.03;;
48040;SDS011;33815;48.386;11.738;2023-01-26T12:42:56;17.58;;;7.35;;
48040;SDS011;33815;48.386;11.738;2023-01-26T12:45:31;13.48;;;7.03;;
48040;SDS011;33815;48.386;11.738;2023-01-26T12:50:50;13.70;;;6.75;;
48040;SDS011;33815;48.386;11.738;2023-01-26T12:53:22;13.13;;;7.75;;
48040;SDS011;33815;48.386;11.738;2023-01-26T12:58:49;16.33;;;8.18;;
48040;SDS011;33815;48.386;11.738;2023-01-26T13:01:17;14.95;;;8.20;;
48040;SDS011;33815;48.386;11.738;2023-01-26T13:03:55;18.63;;;9.30;;
48040;SDS011;33815;48.386;11.738;2023-01-26T13:06:26;17.17;;;7.53;;
48040;SDS011;33815;48.386;11.738;2023-01-26T13:17:39;17.77;;;8.82;;
48040;SDS011;33815;48.386;11.738;2023-01-26T13:19:51;13.25;;;7.28;;
48040;SDS011;33815;48.386;11.738;2023-01-26T13:24:47;17.95;;;9.32;;
48040;SDS011;33815;48.386;11.738;2023-01-26T13:35:12;16.53;;;8.57;;
48040;SDS011;33815;48.386;11.738;2023-01-26T13:37:46;14.77;;;6.97;;
48040;SDS011;33815;48.386;11.738;2023-01-26T13:40:17;13.65;;;6.68;;
48040;SDS011;33815;48.386;11.738;2023-01-26T13:42:49;14.73;;;7.63;;
48040;SDS011;33815;48.386;11.738;2023-01-26T13:45:25;15.15;;;7.32;;
48040;SDS011;33815;48.386;11.738;2023-01-26T13:47:56;18.55;;;8.48;;
48040;SDS011;33815;48.386;11.738;2023-01-26T13:50:27;13.63;;;6.30;;
48040;SDS011;33815;48.386;11.738;2023-01-26T13:52:53;17.13;;;8.02;;
48040;SDS011;33815;48.386;11.738;2023-01-26T13:55:23;14.32;;;7.82;;
48040;SDS011;33815;48.386;11.738;2023-01-26T13:58:12;13.98;;;7.57;;
48040;SDS011;33815;48.386;11.738;2023-01-26T14:00:35;15.13;;;7.57;;
48040;SDS011;33815;48.386;11.738;2023-01-26T14:03:01;17.65;;;9.18;;
48040;SDS011;33815;48.386;11.738;2023-01-26T14:05:26;14.10;;;7.97;;
48040;SDS011;33815;48.386;11.738;2023-01-26T14:07:52;13.98;;;7.97;;
48040;SDS011;33815;48.386;11.738;2023-01-26T14:10:18;21.20;;;9.80;;
48040;SDS011;33815;48.386;11.738;2023-01-26T14:12:44;20.33;;;9.32;;
48040;SDS011;33815;48.386;11.738;2023-01-26T14:15:31;21.83;;;10.45;;
48040;SDS011;33815;48.386;11.738;2023-01-26T14:18:17;19.40;;;9.25;;
48040;SDS011;33815;48.386;11.738;2023-01-26T14:20:46;30.20;;;13.40;;
48040;SDS011;33815;48.386;11.738;2023-01-26T14:28:22;22.73;;;11.10;;
48040;SDS011;33815;48.386;11.738;2023-01-26T14:30:53;15.65;;;8.43;;
48040;SDS011;33815;48.386;11.738;2023-01-26T14:33:34;16.25;;;8.07;;
48040;SDS011;33815;48.386;11.738;2023-01-26T14:36:01;15.63;;;7.40;;
48040;SDS011;33815;48.386;11.738;2023-01-26T14:38:29;15.90;;;8.48;;
48040;SDS011;33815;48.386;11.738;2023-01-26T14:41:14;16.00;;;7.75;;
48040;SDS011;33815;48.386;11.738;2023-01-26T14:43:54;15.88;;;9.25;;
48040;SDS011;33815;48.386;11.738;2023-01-26T14:46:23;16.38;;;8.18;;
48040;SDS011;33815;48.386;11.738;2023-01-26T14:48:57;15.77;;;8.23;;
48040;SDS011;33815;48.386;11.738;2023-01-26T14:51:43;13.63;;;7.18;;
48040;SDS011;33815;48.386;11.738;2023-01-26T14:54:24;14.05;;;7.85;;
48040;SDS011;33815;48.386;11.738;2023-01-26T14:56:53;15.73;;;7.75;;
48040;SDS011;33815;48.386;11.738;2023-01-26T14:59:21;15.32;;;7.60;;
48040;SDS011;33815;48.386;11.738;2023-01-26T15:05:15;18.45;;;7.45;;
48040;SDS011;33815;48.386;11.738;2023-01-26T15:07:45;14.85;;;7.35;;
48040;SDS011;33815;48.386;11.738;2023-01-26T15:10:39;15.65;;;7.82;;
48040;SDS011;33815;48.386;11.738;2023-01-26T15:13:44;15.48;;;7.82;;
48040;SDS011;33815;48.386;11.738;2023-01-26T15:16:16;19.10;;;8.48;;
48040;SDS011;33815;48.386;11.738;2023-01-26T15:19:01;14.90;;;7.43;;
48040;SDS011;33815;48.386;11.738;2023-01-26T15:21:31;12.40;;;7.32;;
48040;SDS011;33815;48.386;11.738;2023-01-26T15:23:58;23.70;;;10.55;;
48040;SDS011;33815;48.386;11.738;2023-01-26T15:26:28;24.55;;;9.93;;
48040;SDS011;33815;48.386;11.738;2023-01-26T15:28:57;23.13;;;9.73;;
48040;SDS011;33815;48.386;11.738;2023-01-26T15:31:41;14.05;;;7.82;;
48040;SDS011;33815;48.386;11.738;2023-01-26T15:37:00;22.80;;;8.07;;
48040;SDS011;33815;48.386;11.738;2023-01-26T15:39:44;16.45;;;7.30;;
48040;SDS011;33815;48.386;11.738;2023-01-26T15:42:13;19.55;;;8.25;;
48040;SDS011;33815;48.386;11.738;2023-01-26T15:44:40;16.15;;;8.25;;
48040;SDS011;33815;48.386;11.738;2023-01-26T15:47:09;15.48;;;7.90;;
48040;SDS011;33815;48.386;11.738;2023-01-26T15:49:36;17.25;;;8.73;;
48040;SDS011;33815;48.386;11.738;2023-01-26T15:52:02;13.25;;;7.32;;
48040;SDS011;33815;48.386;11.738;2023-01-26T15:54:32;19.58;;;8.13;;
48040;SDS011;33815;48.386;11.738;2023-01-26T15:56:58;14.45;;;7.38;;
48040;SDS011;33815;48.386;11.738;2023-01-26T15:59:23;13.75;;;7.38;;
48040;SDS011;33815;48.386;11.738;2023-01-26T16:01:48;19.13;;;8.02;;
48040;SDS011;33815;48.386;11.738;2023-01-26T16:04:13;13.88;;;7.65;;
48040;SDS011;33815;48.386;11.738;2023-01-26T16:06:39;14.07;;;7.50;;
48040;SDS011;33815;48.386;11.738;2023-01-26T16:09:04;13.90;;;7.13;;
48040;SDS011;33815;48.386;11.738;2023-01-26T16:11:33;17.58;;;7.72;;
48040;SDS011;33815;48.386;11.738;2023-01-26T16:14:05;11.43;;;7.63;;
48040;SDS011;33815;48.386;11.738;2023-01-26T16:16:31;12.90;;;7.15;;
48040;SDS011;33815;48.386;11.738;2023-01-26T16:18:57;15.95;;;8.65;;